sensor_id;sensor_type;location;lat;lon;timestamp;pressure;altitude;pressure_sealevel;temperature
80537;BMP280;69867;47.074;15.404;2024-03-06T00:02:24;97275.91;;;7.91
80537;BMP280;69867;47.074;15.404;2024-03-06T00:04:49;97279.44;;;7.87
80537;BMP280;69867;47.074;15.404;2024-03-06T00:07:15;97289.84;;;7.82
80537;BMP280;69867;47.074;15.404;2024-03-06T00:09:40;97285.63;;;7.75
80537;BMP280;69867;47.074;15.404;2024-03-06T00:12:05;97287.41;;;7.71
80537;BMP280;69867;47.074;15.404;2024-03-06T00:14:31;97296.09;;;7.67
80537;BMP280;69867;47.074;15.404;2024-03-06T00:16:56;97292.75;;;7.62
80537;BMP280;69867;47.074;15.404;2024-03-06T00:19:21;97301.38;;;7.61
80537;BMP280;69867;47.074;15.404;2024-03-06T00:21:47;97293.66;;;7.60
80537;BMP280;69867;47.074;15.404;2024-03-06T00:24:16;97300.56;;;7.58
80537;BMP280;69867;47.074;15.404;2024-03-06T00:26:42;97307.50;;;7.56
80537;BMP280;69867;47.074;15.404;2024-03-06T00:29:08;97307.56;;;7.53
80537;BMP280;69867;47.074;15.404;2024-03-06T00:31:34;97306.72;;;7.51
80537;BMP280;69867;47.074;15.404;2024-03-06T00:33:59;97305.91;;;7.49
80537;BMP280;69867;47.074;15.404;2024-03-06T00:36:24;97304.19;;;7.48
80537;BMP280;69867;47.074;15.404;2024-03-06T00:38:50;97305.94;;;7.46
80537;BMP280;69867;47.074;15.404;2024-03-06T00:41:15;97309.34;;;7.48
80537;BMP280;69867;47.074;15.404;2024-03-06T00:43:40;97309.34;;;7.48
80537;BMP280;69867;47.074;15.404;2024-03-06T00:46:06;97308.44;;;7.50
80537;BMP280;69867;47.074;15.404;2024-03-06T00:48:31;97298.09;;;7.52
80537;BMP280;69867;47.074;15.404;2024-03-06T00:50:56;97305.78;;;7.55
80537;BMP280;69867;47.074;15.404;2024-03-06T00:53:22;97304.91;;;7.57
80537;BMP280;69867;47.074;15.404;2024-03-06T00:55:47;97304.03;;;7.57
80537;BMP280;69867;47.074;15.404;2024-03-06T00:58:12;97300.56;;;7.59
80537;BMP280;69867;47.074;15.404;2024-03-06T01:00:38;97304.84;;;7.60
80537;BMP280;69867;47.074;15.404;2024-03-06T01:03:03;97309.16;;;7.60
80537;BMP280;69867;47.074;15.404;2024-03-06T01:05:28;97301.41;;;7.60
80537;BMP280;69867;47.074;15.404;2024-03-06T01:07:54;97298.00;;;7.56
80537;BMP280;69867;47.074;15.404;2024-03-06T01:10:19;97302.34;;;7.54
80537;BMP280;69867;47.074;15.404;2024-03-06T01:12:44;97304.19;;;7.48
80537;BMP280;69867;47.074;15.404;2024-03-06T01:15:10;97301.59;;;7.48
80537;BMP280;69867;47.074;15.404;2024-03-06T01:17:35;97306.81;;;7.45
80537;BMP280;69867;47.074;15.404;2024-03-06T01:20:00;97303.41;;;7.43
80537;BMP280;69867;47.074;15.404;2024-03-06T01:22:26;97310.25;;;7.45
80537;BMP280;69867;47.074;15.404;2024-03-06T01:24:51;97304.13;;;7.52
80537;BMP280;69867;47.074;15.404;2024-03-06T01:27:16;97302.34;;;7.54
80537;BMP280;69867;47.074;15.404;2024-03-06T01:29:42;97299.91;;;7.45
80537;BMP280;69867;47.074;15.404;2024-03-06T01:32:07;97297.34;;;7.45
80537;BMP280;69867;47.074;15.404;2024-03-06T01:34:32;97300.84;;;7.41
80537;BMP280;69867;47.074;15.404;2024-03-06T01:36:58;97301.75;;;7.38
80537;BMP280;69867;47.074;15.404;2024-03-06T01:39:23;97311.25;;;7.36
80537;BMP280;69867;47.074;15.404;2024-03-06T01:41:50;97298.38;;;7.33
80537;BMP280;69867;47.074;15.404;2024-03-06T01:44:19;97303.59;;;7.30
80537;BMP280;69867;47.074;15.404;2024-03-06T01:46:45;97298.47;;;7.27
80537;BMP280;69867;47.074;15.404;2024-03-06T01:49:11;97299.34;;;7.26
80537;BMP280;69867;47.074;15.404;2024-03-06T01:51:37;97302.84;;;7.22
80537;BMP280;69867;47.074;15.404;2024-03-06T01:54:03;97295.13;;;7.19
80537;BMP280;69867;47.074;15.404;2024-03-06T01:56:29;97296.91;;;7.17
80537;BMP280;69867;47.074;15.404;2024-03-06T01:58:55;97287.44;;;7.16
80537;BMP280;69867;47.074;15.404;2024-03-06T02:01:21;97289.22;;;7.11
80537;BMP280;69867;47.074;15.404;2024-03-06T02:03:47;97289.28;;;7.08
80537;BMP280;69867;47.074;15.404;2024-03-06T02:06:14;97289.31;;;7.05
80537;BMP280;69867;47.074;15.404;2024-03-06T02:08:39;97294.53;;;7.02
80537;BMP280;69867;47.074;15.404;2024-03-06T02:11:05;97284.25;;;6.99
80537;BMP280;69867;47.074;15.404;2024-03-06T02:13:30;97285.97;;;6.98
80537;BMP280;69867;47.074;15.404;2024-03-06T02:15:56;97286.84;;;6.97
80537;BMP280;69867;47.074;15.404;2024-03-06T02:18:21;97284.28;;;6.96
80537;BMP280;69867;47.074;15.404;2024-03-06T02:20:47;97281.72;;;6.94
80537;BMP280;69867;47.074;15.404;2024-03-06T02:23:12;97281.69;;;6.97
80537;BMP280;69867;47.074;15.404;2024-03-06T02:25:37;97282.56;;;6.95
80537;BMP280;69867;47.074;15.404;2024-03-06T02:28:03;97278.31;;;6.92
80537;BMP280;69867;47.074;15.404;2024-03-06T02:30:28;97273.13;;;6.92
80537;BMP280;69867;47.074;15.404;2024-03-06T02:32:54;97280.91;;;6.91
80537;BMP280;69867;47.074;15.404;2024-03-06T02:35:19;97280.06;;;6.89
80537;BMP280;69867;47.074;15.404;2024-03-06T02:37:44;97273.19;;;6.89
80537;BMP280;69867;47.074;15.404;2024-03-06T02:40:10;97268.91;;;6.88
80537;BMP280;69867;47.074;15.404;2024-03-06T02:42:36;97264.59;;;6.87
80537;BMP280;69867;47.074;15.404;2024-03-06T02:45:01;97266.31;;;6.88
80537;BMP280;69867;47.074;15.404;2024-03-06T02:47:26;97272.31;;;6.89
80537;BMP280;69867;47.074;15.404;2024-03-06T02:49:52;97261.19;;;6.85
80537;BMP280;69867;47.074;15.404;2024-03-06T02:52:17;97277.53;;;6.86
80537;BMP280;69867;47.074;15.404;2024-03-06T02:54:42;97267.19;;;6.86
80537;BMP280;69867;47.074;15.404;2024-03-06T02:57:08;97268.94;;;6.84
80537;BMP280;69867;47.074;15.404;2024-03-06T02:59:34;97271.53;;;6.85
80537;BMP280;69867;47.074;15.404;2024-03-06T03:01:59;97269.81;;;6.84
80537;BMP280;69867;47.074;15.404;2024-03-06T03:04:24;97272.41;;;6.83
80537;BMP280;69867;47.074;15.404;2024-03-06T03:06:49;97269.88;;;6.80
80537;BMP280;69867;47.074;15.404;2024-03-06T03:09:15;97272.44;;;6.80
80537;BMP280;69867;47.074;15.404;2024-03-06T03:11:42;97268.94;;;6.84
80537;BMP280;69867;47.074;15.404;2024-03-06T03:14:07;97268.97;;;6.82
80537;BMP280;69867;47.074;15.404;2024-03-06T03:16:32;97274.19;;;6.79
80537;BMP280;69867;47.074;15.404;2024-03-06T03:18:58;97276.75;;;6.81
80537;BMP280;69867;47.074;15.404;2024-03-06T03:21:23;97269.84;;;6.81
80537;BMP280;69867;47.074;15.404;2024-03-06T03:23:48;97272.41;;;6.83
80537;BMP280;69867;47.074;15.404;2024-03-06T03:26:14;97272.44;;;6.81
80537;BMP280;69867;47.074;15.404;2024-03-06T03:28:39;97281.91;;;6.81
80537;BMP280;69867;47.074;15.404;2024-03-06T03:31:08;97274.13;;;6.82
80537;BMP280;69867;47.074;15.404;2024-03-06T03:33:43;97275.00;;;6.83
80537;BMP280;69867;47.074;15.404;2024-03-06T03:36:09;97276.69;;;6.85
80537;BMP280;69867;47.074;15.404;2024-03-06T03:38:38;97280.94;;;6.88
80537;BMP280;69867;47.074;15.404;2024-03-06T03:41:08;97274.94;;;6.87
80537;BMP280;69867;47.074;15.404;2024-03-06T03:43:33;97284.38;;;6.90
80537;BMP280;69867;47.074;15.404;2024-03-06T03:45:58;97278.31;;;6.91
80537;BMP280;69867;47.074;15.404;2024-03-06T03:48:24;97280.03;;;6.92
80537;BMP280;69867;47.074;15.404;2024-03-06T03:50:49;97282.56;;;6.95
80537;BMP280;69867;47.074;15.404;2024-03-06T03:53:14;97274.81;;;6.95
80537;BMP280;69867;47.074;15.404;2024-03-06T03:55:40;97276.63;;;6.90
80537;BMP280;69867;47.074;15.404;2024-03-06T03:58:05;97274.03;;;6.90
80537;BMP280;69867;47.074;15.404;2024-03-06T04:00:30;97274.03;;;6.90
80537;BMP280;69867;47.074;15.404;2024-03-06T04:02:56;97282.63;;;6.92
80537;BMP280;69867;47.074;15.404;2024-03-06T04:05:22;97274.84;;;6.93
80537;BMP280;69867;47.074;15.404;2024-03-06T04:07:47;97280.00;;;6.93
80537;BMP280;69867;47.074;15.404;2024-03-06T04:10:12;97277.44;;;6.92
80537;BMP280;69867;47.074;15.404;2024-03-06T04:12:38;97276.59;;;6.91
80537;BMP280;69867;47.074;15.404;2024-03-06T04:15:04;97280.88;;;6.94
80537;BMP280;69867;47.074;15.404;2024-03-06T04:17:29;97281.69;;;6.96
80537;BMP280;69867;47.074;15.404;2024-03-06T04:19:54;97277.38;;;6.98
80537;BMP280;69867;47.074;15.404;2024-03-06T04:22:20;97280.88;;;6.94
80537;BMP280;69867;47.074;15.404;2024-03-06T04:24:45;97276.59;;;6.91
80537;BMP280;69867;47.074;15.404;2024-03-06T04:27:10;97286.03;;;6.94
80537;BMP280;69867;47.074;15.404;2024-03-06T04:29:36;97282.63;;;6.92
80537;BMP280;69867;47.074;15.404;2024-03-06T04:32:01;97284.38;;;6.88
80537;BMP280;69867;47.074;15.404;2024-03-06T04:34:26;97284.38;;;6.90
80537;BMP280;69867;47.074;15.404;2024-03-06T04:36:52;97293.81;;;6.92
80537;BMP280;69867;47.074;15.404;2024-03-06T04:39:17;97286.03;;;6.94
80537;BMP280;69867;47.074;15.404;2024-03-06T04:41:42;97292.03;;;6.96
80537;BMP280;69867;47.074;15.404;2024-03-06T04:44:08;97292.03;;;6.96
80537;BMP280;69867;47.074;15.404;2024-03-06T04:46:33;97294.56;;;6.99
80537;BMP280;69867;47.074;15.404;2024-03-06T04:48:59;97303.16;;;7.01
80537;BMP280;69867;47.074;15.404;2024-03-06T04:51:24;97302.34;;;6.97
80537;BMP280;69867;47.074;15.404;2024-03-06T04:53:49;97298.00;;;6.99
80537;BMP280;69867;47.074;15.404;2024-03-06T04:56:15;97308.38;;;6.96
80537;BMP280;69867;47.074;15.404;2024-03-06T04:58:40;97310.09;;;6.97
80537;BMP280;69867;47.074;15.404;2024-03-06T05:01:06;97308.38;;;6.98
80537;BMP280;69867;47.074;15.404;2024-03-06T05:03:31;97312.59;;;7.03
80537;BMP280;69867;47.074;15.404;2024-03-06T05:05:56;97309.13;;;7.04
80537;BMP280;69867;47.074;15.404;2024-03-06T05:08:22;97314.28;;;7.06
80537;BMP280;69867;47.074;15.404;2024-03-06T05:10:47;97313.38;;;7.09
80537;BMP280;69867;47.074;15.404;2024-03-06T05:13:12;97315.13;;;7.08
80537;BMP280;69867;47.074;15.404;2024-03-06T05:15:38;97316.03;;;7.04
80537;BMP280;69867;47.074;15.404;2024-03-06T05:18:03;97322.09;;;7.01
80537;BMP280;69867;47.074;15.404;2024-03-06T05:20:29;97310.88;;;7.04
80537;BMP280;69867;47.074;15.404;2024-03-06T05:22:54;97320.31;;;7.05
80537;BMP280;69867;47.074;15.404;2024-03-06T05:25:19;97316.81;;;7.09
80537;BMP280;69867;47.074;15.404;2024-03-06T05:27:45;97316.88;;;7.06
80537;BMP280;69867;47.074;15.404;2024-03-06T05:30:10;97326.31;;;7.07
80537;BMP280;69867;47.074;15.404;2024-03-06T05:32:36;97326.34;;;7.05
80537;BMP280;69867;47.074;15.404;2024-03-06T05:35:01;97323.75;;;7.07
80537;BMP280;69867;47.074;15.404;2024-03-06T05:37:26;97321.94;;;7.12
80537;BMP280;69867;47.074;15.404;2024-03-06T05:39:52;97320.25;;;7.10
80537;BMP280;69867;47.074;15.404;2024-03-06T05:42:17;97319.44;;;7.06
80537;BMP280;69867;47.074;15.404;2024-03-06T05:44:42;97312.47;;;7.13
80537;BMP280;69867;47.074;15.404;2024-03-06T05:47:07;97320.13;;;7.19
80537;BMP280;69867;47.074;15.404;2024-03-06T05:49:33;97322.69;;;7.20
80537;BMP280;69867;47.074;15.404;2024-03-06T05:51:58;97325.34;;;7.16
80537;BMP280;69867;47.074;15.404;2024-03-06T05:54:24;97327.13;;;7.11
80537;BMP280;69867;47.074;15.404;2024-03-06T05:56:50;97324.44;;;7.18
80537;BMP280;69867;47.074;15.404;2024-03-06T05:59:15;97323.47;;;7.25
80537;BMP280;69867;47.074;15.404;2024-03-06T06:01:41;97325.97;;;7.31
80537;BMP280;69867;47.074;15.404;2024-03-06T06:04:08;97330.28;;;7.32
80537;BMP280;69867;47.074;15.404;2024-03-06T06:06:33;97333.69;;;7.34
80537;BMP280;69867;47.074;15.404;2024-03-06T06:08:58;97330.13;;;7.42
80537;BMP280;69867;47.074;15.404;2024-03-06T06:11:24;97330.91;;;7.48
80537;BMP280;69867;47.074;15.404;2024-03-06T06:13:49;97335.13;;;7.54
80537;BMP280;69867;47.074;15.404;2024-03-06T06:16:14;97332.50;;;7.55
80537;BMP280;69867;47.074;15.404;2024-03-06T06:18:40;97345.38;;;7.58
80537;BMP280;69867;47.074;15.404;2024-03-06T06:21:06;97342.78;;;7.60
80537;BMP280;69867;47.074;15.404;2024-03-06T06:23:31;97345.28;;;7.66
80537;BMP280;69867;47.074;15.404;2024-03-06T06:25:56;97349.59;;;7.65
80537;BMP280;69867;47.074;15.404;2024-03-06T06:28:22;97344.38;;;7.68
80537;BMP280;69867;47.074;15.404;2024-03-06T06:30:47;97346.88;;;7.73
80537;BMP280;69867;47.074;15.404;2024-03-06T06:33:12;97352.84;;;7.78
80537;BMP280;69867;47.074;15.404;2024-03-06T06:35:38;97353.69;;;7.80
80537;BMP280;69867;47.074;15.404;2024-03-06T06:38:03;97354.44;;;7.87
80537;BMP280;69867;47.074;15.404;2024-03-06T06:40:28;97354.31;;;7.94
80537;BMP280;69867;47.074;15.404;2024-03-06T06:42:54;97355.06;;;8.02
80537;BMP280;69867;47.074;15.404;2024-03-06T06:45:20;97358.38;;;8.09
80537;BMP280;69867;47.074;15.404;2024-03-06T06:47:46;97356.53;;;8.16
80537;BMP280;69867;47.074;15.404;2024-03-06T06:50:11;97347.91;;;8.17
80537;BMP280;69867;47.074;15.404;2024-03-06T06:52:38;97367.97;;;8.04
80537;BMP280;69867;47.074;15.404;2024-03-06T06:55:03;97356.59;;;8.13
80537;BMP280;69867;47.074;15.404;2024-03-06T06:57:29;97368.00;;;8.02
80537;BMP280;69867;47.074;15.404;2024-03-06T06:59:54;97363.63;;;8.05
80537;BMP280;69867;47.074;15.404;2024-03-06T07:02:19;97358.50;;;8.01
80537;BMP280;69867;47.074;15.404;2024-03-06T07:04:45;97355.16;;;7.96
80537;BMP280;69867;47.074;15.404;2024-03-06T07:07:10;97351.59;;;8.03
80537;BMP280;69867;47.074;15.404;2024-03-06T07:09:35;97353.97;;;8.16
80537;BMP280;69867;47.074;15.404;2024-03-06T07:12:01;97355.38;;;8.35
80537;BMP280;69867;47.074;15.404;2024-03-06T07:14:26;97356.88;;;8.47
80537;BMP280;69867;47.074;15.404;2024-03-06T07:16:52;97357.56;;;8.56
80537;BMP280;69867;47.074;15.404;2024-03-06T07:19:17;97357.31;;;8.69
80537;BMP280;69867;47.074;15.404;2024-03-06T07:21:42;97353.66;;;8.79
80537;BMP280;69867;47.074;15.404;2024-03-06T07:24:08;97357.03;;;8.84
80537;BMP280;69867;47.074;15.404;2024-03-06T07:26:33;97356.78;;;8.96
80537;BMP280;69867;47.074;15.404;2024-03-06T07:28:59;97356.72;;;8.99
80537;BMP280;69867;47.074;15.404;2024-03-06T07:31:24;97361.81;;;9.02
80537;BMP280;69867;47.074;15.404;2024-03-06T07:33:50;97372.03;;;9.11
80537;BMP280;69867;47.074;15.404;2024-03-06T07:36:16;97370.16;;;9.18
80537;BMP280;69867;47.074;15.404;2024-03-06T07:38:41;97361.41;;;9.23
80537;BMP280;69867;47.074;15.404;2024-03-06T07:41:06;97369.06;;;9.29
80537;BMP280;69867;47.074;15.404;2024-03-06T07:43:32;97365.47;;;9.35
80537;BMP280;69867;47.074;15.404;2024-03-06T07:45:57;97370.47;;;9.43
80537;BMP280;69867;47.074;15.404;2024-03-06T07:48:22;97363.63;;;9.40
80537;BMP280;69867;47.074;15.404;2024-03-06T07:50:48;97372.94;;;9.49
80537;BMP280;69867;47.074;15.404;2024-03-06T07:53:13;97366.13;;;9.45
80537;BMP280;69867;47.074;15.404;2024-03-06T07:55:38;97368.56;;;9.51
80537;BMP280;69867;47.074;15.404;2024-03-06T07:58:04;97374.59;;;9.53
80537;BMP280;69867;47.074;15.404;2024-03-06T08:00:29;97372.81;;;9.55
80537;BMP280;69867;47.074;15.404;2024-03-06T08:02:54;97370.28;;;9.52
80537;BMP280;69867;47.074;15.404;2024-03-06T08:05:20;97364.00;;;9.62
80537;BMP280;69867;47.074;15.404;2024-03-06T08:07:45;97379.53;;;9.63
80537;BMP280;69867;47.074;15.404;2024-03-06T08:10:12;97378.59;;;9.66
80537;BMP280;69867;47.074;15.404;2024-03-06T08:12:37;97372.50;;;9.69
80537;BMP280;69867;47.074;15.404;2024-03-06T08:15:03;97374.91;;;9.76
80537;BMP280;69867;47.074;15.404;2024-03-06T08:17:28;97375.88;;;9.72
80537;BMP280;69867;47.074;15.404;2024-03-06T08:19:53;97374.22;;;9.68
80537;BMP280;69867;47.074;15.404;2024-03-06T08:22:19;97376.75;;;9.71
80537;BMP280;69867;47.074;15.404;2024-03-06T08:24:44;97379.31;;;9.73
80537;BMP280;69867;47.074;15.404;2024-03-06T08:27:09;97381.06;;;9.72
80537;BMP280;69867;47.074;15.404;2024-03-06T08:29:35;97390.44;;;9.78
80537;BMP280;69867;47.074;15.404;2024-03-06T08:32:00;97384.31;;;9.80
80537;BMP280;69867;47.074;15.404;2024-03-06T08:34:25;97387.59;;;9.88
80537;BMP280;69867;47.074;15.404;2024-03-06T08:36:50;97384.97;;;9.90
80537;BMP280;69867;47.074;15.404;2024-03-06T08:39:16;97390.84;;;9.97
80537;BMP280;69867;47.074;15.404;2024-03-06T08:41:41;97390.84;;;9.97
80537;BMP280;69867;47.074;15.404;2024-03-06T08:44:06;97394.84;;;10.10
80537;BMP280;69867;47.074;15.404;2024-03-06T08:46:32;97389.47;;;10.17
80537;BMP280;69867;47.074;15.404;2024-03-06T08:48:57;97393.63;;;10.26
80537;BMP280;69867;47.074;15.404;2024-03-06T08:51:22;97396.34;;;10.21
80537;BMP280;69867;47.074;15.404;2024-03-06T08:53:48;97400.59;;;10.24
80537;BMP280;69867;47.074;15.404;2024-03-06T08:56:13;97392.84;;;10.22
80537;BMP280;69867;47.074;15.404;2024-03-06T08:58:38;97405.13;;;10.14
80537;BMP280;69867;47.074;15.404;2024-03-06T09:01:04;97395.47;;;10.21
80537;BMP280;69867;47.074;15.404;2024-03-06T09:03:29;97403.31;;;10.18
80537;BMP280;69867;47.074;15.404;2024-03-06T09:05:54;97400.59;;;10.24
80537;BMP280;69867;47.074;15.404;2024-03-06T09:08:20;97402.38;;;10.22
80537;BMP280;69867;47.074;15.404;2024-03-06T09:10:45;97406.84;;;10.15
80537;BMP280;69867;47.074;15.404;2024-03-06T09:13:10;97405.88;;;10.21
80537;BMP280;69867;47.074;15.404;2024-03-06T09:15:36;97403.16;;;10.25
80537;BMP280;69867;47.074;15.404;2024-03-06T09:18:01;97410.75;;;10.33
80537;BMP280;69867;47.074;15.404;2024-03-06T09:20:27;97402.88;;;10.36
80537;BMP280;69867;47.074;15.404;2024-03-06T09:22:52;97404.94;;;10.23
80537;BMP280;69867;47.074;15.404;2024-03-06T09:25:17;97408.72;;;10.46
80537;BMP280;69867;47.074;15.404;2024-03-06T09:27:43;97403.34;;;10.53
80537;BMP280;69867;47.074;15.404;2024-03-06T09:30:09;97406.53;;;10.63
80537;BMP280;69867;47.074;15.404;2024-03-06T09:32:34;97403.88;;;10.66
80537;BMP280;69867;47.074;15.404;2024-03-06T09:34:59;97406.34;;;10.71
80537;BMP280;69867;47.074;15.404;2024-03-06T09:37:25;97409.91;;;10.67
80537;BMP280;69867;47.074;15.404;2024-03-06T09:39:50;97403.00;;;10.66
80537;BMP280;69867;47.074;15.404;2024-03-06T09:42:16;97405.53;;;10.69
80537;BMP280;69867;47.074;15.404;2024-03-06T09:44:41;97414.91;;;10.74
80537;BMP280;69867;47.074;15.404;2024-03-06T09:47:07;97408.94;;;10.71
80537;BMP280;69867;47.074;15.404;2024-03-06T09:49:32;97412.31;;;10.74
80537;BMP280;69867;47.074;15.404;2024-03-06T09:51:59;97408.03;;;10.72
80537;BMP280;69867;47.074;15.404;2024-03-06T09:54:25;97401.91;;;10.74
80537;BMP280;69867;47.074;15.404;2024-03-06T09:56:51;97408.88;;;10.74
80537;BMP280;69867;47.074;15.404;2024-03-06T09:59:16;97405.38;;;10.75
80537;BMP280;69867;47.074;15.404;2024-03-06T10:01:54;97406.06;;;10.81
80537;BMP280;69867;47.074;15.404;2024-03-06T10:04:21;97404.00;;;10.93
80537;BMP280;69867;47.074;15.404;2024-03-06T10:06:47;97399.53;;;10.98
80537;BMP280;69867;47.074;15.404;2024-03-06T10:09:18;97400.47;;;10.95
80537;BMP280;69867;47.074;15.404;2024-03-06T10:11:43;97405.38;;;11.06
80537;BMP280;69867;47.074;15.404;2024-03-06T10:14:09;97398.16;;;11.15
80537;BMP280;69867;47.074;15.404;2024-03-06T10:16:34;97403.38;;;11.15
80537;BMP280;69867;47.074;15.404;2024-03-06T10:19:15;97405.16;;;11.13
80537;BMP280;69867;47.074;15.404;2024-03-06T10:21:40;97396.63;;;11.08
80537;BMP280;69867;47.074;15.404;2024-03-06T10:24:05;97400.63;;;11.20
80537;BMP280;69867;47.074;15.404;2024-03-06T10:26:31;97392.44;;;11.34
80537;BMP280;69867;47.074;15.404;2024-03-06T10:28:56;97387.63;;;11.49
80537;BMP280;69867;47.074;15.404;2024-03-06T10:31:28;97400.31;;;11.60
80537;BMP280;69867;47.074;15.404;2024-03-06T10:33:53;97393.41;;;11.59
80537;BMP280;69867;47.074;15.404;2024-03-06T10:36:18;97393.31;;;11.62
80537;BMP280;69867;47.074;15.404;2024-03-06T10:38:46;97397.72;;;11.60
80537;BMP280;69867;47.074;15.404;2024-03-06T10:41:14;97389.56;;;11.72
80537;BMP280;69867;47.074;15.404;2024-03-06T10:43:40;97395.00;;;11.63
80537;BMP280;69867;47.074;15.404;2024-03-06T10:46:08;97404.19;;;11.76
80537;BMP280;69867;47.074;15.404;2024-03-06T10:48:36;97397.97;;;11.82
80537;BMP280;69867;47.074;15.404;2024-03-06T10:51:03;97394.22;;;11.91
80537;BMP280;69867;47.074;15.404;2024-03-06T10:53:29;97399.81;;;11.78
80537;BMP280;69867;47.074;15.404;2024-03-06T10:55:56;97395.47;;;11.79
80537;BMP280;69867;47.074;15.404;2024-03-06T10:58:23;97389.25;;;11.83
80537;BMP280;69867;47.074;15.404;2024-03-06T11:00:50;97387.31;;;11.90
80537;BMP280;69867;47.074;15.404;2024-03-06T11:03:16;97383.91;;;11.88
80537;BMP280;69867;47.074;15.404;2024-03-06T11:05:43;97390.53;;;11.98
80537;BMP280;69867;47.074;15.404;2024-03-06T11:08:11;97383.22;;;12.09
80537;BMP280;69867;47.074;15.404;2024-03-06T11:10:40;97377.75;;;12.16
80537;BMP280;69867;47.074;15.404;2024-03-06T11:13:21;97390.31;;;12.30
80537;BMP280;69867;47.074;15.404;2024-03-06T11:15:47;97380.97;;;12.49
80537;BMP280;69867;47.074;15.404;2024-03-06T11:20:59;97376.13;;;12.64
80537;BMP280;69867;47.074;15.404;2024-03-06T11:23:24;97374.53;;;12.60
80537;BMP280;69867;47.074;15.404;2024-03-06T11:28:19;97371.25;;;12.55
80537;BMP280;69867;47.074;15.404;2024-03-06T11:33:20;97354.69;;;12.80
80537;BMP280;69867;47.074;15.404;2024-03-06T11:38:41;97352.31;;;12.49
80537;BMP280;69867;47.074;15.404;2024-03-06T11:41:07;97351.41;;;12.50
80537;BMP280;69867;47.074;15.404;2024-03-06T11:43:33;97350.03;;;12.40
80537;BMP280;69867;47.074;15.404;2024-03-06T11:46:08;97343.84;;;12.43
80537;BMP280;69867;47.074;15.404;2024-03-06T11:48:33;97344.28;;;12.56
80537;BMP280;69867;47.074;15.404;2024-03-06T11:50:59;97344.59;;;12.71
80537;BMP280;69867;47.074;15.404;2024-03-06T11:53:26;97328.88;;;12.73
80537;BMP280;69867;47.074;15.404;2024-03-06T11:55:53;97337.34;;;12.79
80537;BMP280;69867;47.074;15.404;2024-03-06T11:58:19;97334.63;;;12.82
80537;BMP280;69867;47.074;15.404;2024-03-06T12:00:44;97337.75;;;12.92
80537;BMP280;69867;47.074;15.404;2024-03-06T12:03:10;97326.84;;;13.06
80537;BMP280;69867;47.074;15.404;2024-03-06T12:05:36;97321.19;;;13.18
80537;BMP280;69867;47.074;15.404;2024-03-06T12:08:01;97327.66;;;13.31
80537;BMP280;69867;47.074;15.404;2024-03-06T12:10:27;97319.75;;;13.33
80537;BMP280;69867;47.074;15.404;2024-03-06T12:12:52;97318.28;;;13.26
80537;BMP280;69867;47.074;15.404;2024-03-06T12:15:17;97320.00;;;13.27
80537;BMP280;69867;47.074;15.404;2024-03-06T12:17:47;97318.91;;;13.09
80537;BMP280;69867;47.074;15.404;2024-03-06T12:20:13;97313.63;;;13.10
80537;BMP280;69867;47.074;15.404;2024-03-06T12:22:52;97305.84;;;13.09
80537;BMP280;69867;47.074;15.404;2024-03-06T12:25:19;97315.28;;;12.88
80537;BMP280;69867;47.074;15.404;2024-03-06T12:27:44;97308.25;;;12.90
80537;BMP280;69867;47.074;15.404;2024-03-06T12:30:10;97310.03;;;12.90
80537;BMP280;69867;47.074;15.404;2024-03-06T12:32:35;97311.28;;;12.79
80537;BMP280;69867;47.074;15.404;2024-03-06T12:35:01;97309.09;;;12.67
80537;BMP280;69867;47.074;15.404;2024-03-06T12:37:30;97312.31;;;12.50
80537;BMP280;69867;47.074;15.404;2024-03-06T12:39:56;97307.22;;;12.47
80537;BMP280;69867;47.074;15.404;2024-03-06T12:42:21;97308.31;;;12.40
80537;BMP280;69867;47.074;15.404;2024-03-06T12:44:46;97306.75;;;12.36
80537;BMP280;69867;47.074;15.404;2024-03-06T12:47:12;97302.75;;;12.26
80537;BMP280;69867;47.074;15.404;2024-03-06T12:49:37;97302.97;;;12.20
80537;BMP280;69867;47.074;15.404;2024-03-06T12:52:02;97301.25;;;12.19
80537;BMP280;69867;47.074;15.404;2024-03-06T12:54:28;97296.63;;;12.27
80537;BMP280;69867;47.074;15.404;2024-03-06T12:56:53;97294.88;;;12.28
80537;BMP280;69867;47.074;15.404;2024-03-06T12:59:18;97285.84;;;12.38
80537;BMP280;69867;47.074;15.404;2024-03-06T13:01:44;97281.69;;;12.32
80537;BMP280;69867;47.074;15.404;2024-03-06T13:04:09;97288.16;;;12.45
80537;BMP280;69867;47.074;15.404;2024-03-06T13:06:34;97283.44;;;12.57
80537;BMP280;69867;47.074;15.404;2024-03-06T13:09:00;97282.63;;;12.55
80537;BMP280;69867;47.074;15.404;2024-03-06T13:11:25;97277.09;;;12.64
80537;BMP280;69867;47.074;15.404;2024-03-06T13:13:50;97269.94;;;12.69
80537;BMP280;69867;47.074;15.404;2024-03-06T13:16:16;97264.63;;;12.72
80537;BMP280;69867;47.074;15.404;2024-03-06T13:18:41;97262.47;;;12.60
80537;BMP280;69867;47.074;15.404;2024-03-06T13:21:06;97266.25;;;12.51
80537;BMP280;69867;47.074;15.404;2024-03-06T13:23:32;97262.13;;;12.45
80537;BMP280;69867;47.074;15.404;2024-03-06T13:25:57;97261.88;;;12.52
80537;BMP280;69867;47.074;15.404;2024-03-06T13:28:23;97268.06;;;12.49
80537;BMP280;69867;47.074;15.404;2024-03-06T13:30:48;97260.38;;;12.69
80537;BMP280;69867;47.074;15.404;2024-03-06T13:33:13;97249.88;;;12.71
80537;BMP280;69867;47.074;15.404;2024-03-06T13:35:39;97254.06;;;12.75
80537;BMP280;69867;47.074;15.404;2024-03-06T13:38:05;97252.50;;;12.71
80537;BMP280;69867;47.074;15.404;2024-03-06T13:40:30;97249.38;;;12.61
80537;BMP280;69867;47.074;15.404;2024-03-06T13:42:55;97246.03;;;12.58
80537;BMP280;69867;47.074;15.404;2024-03-06T13:45:21;97252.88;;;12.83
80537;BMP280;69867;47.074;15.404;2024-03-06T13:47:46;97245.31;;;13.01
80537;BMP280;69867;47.074;15.404;2024-03-06T13:50:16;97242.28;;;13.11
80537;BMP280;69867;47.074;15.404;2024-03-06T13:52:42;97241.88;;;13.22
80537;BMP280;69867;47.074;15.404;2024-03-06T13:55:07;97244.88;;;13.35
80537;BMP280;69867;47.074;15.404;2024-03-06T13:57:34;97239.34;;;13.42
80537;BMP280;69867;47.074;15.404;2024-03-06T14:00:03;97231.81;;;13.35
80537;BMP280;69867;47.074;15.404;2024-03-06T14:02:29;97226.47;;;13.38
80537;BMP280;69867;47.074;15.404;2024-03-06T14:04:54;97224.72;;;13.38
80537;BMP280;69867;47.074;15.404;2024-03-06T14:07:19;97229.63;;;13.46